sensor_id;sensor_type;location;lat;lon;timestamp;temperature;humidity
3071;DHT22;1546;47.208;9.038;2022-07-18T00:00:59;20.90;73.40
3071;DHT22;1546;47.208;9.038;2022-07-18T00:03:45;20.80;73.70
3071;DHT22;1546;47.208;9.038;2022-07-18T00:06:32;20.80;73.40
3071;DHT22;1546;47.208;9.038;2022-07-18T00:09:17;20.70;73.20
3071;DHT22;1546;47.208;9.038;2022-07-18T00:12:04;20.80;73.50
3071;DHT22;1546;47.208;9.038;2022-07-18T00:14:50;20.70;73.50
3071;DHT22;1546;47.208;9.038;2022-07-18T00:17:35;20.70;73.80
3071;DHT22;1546;47.208;9.038;2022-07-18T00:20:21;20.70;74.30
3071;DHT22;1546;47.208;9.038;2022-07-18T00:23:08;20.70;75.60
3071;DHT22;1546;47.208;9.038;2022-07-18T00:25:53;20.70;76.60
3071;DHT22;1546;47.208;9.038;2022-07-18T00:28:39;20.60;75.00
3071;DHT22;1546;47.208;9.038;2022-07-18T00:31:25;20.60;74.70
3071;DHT22;1546;47.208;9.038;2022-07-18T00:34:10;20.60;74.20
3071;DHT22;1546;47.208;9.038;2022-07-18T00:36:56;20.50;74.50
3071;DHT22;1546;47.208;9.038;2022-07-18T00:39:43;20.50;74.50
3071;DHT22;1546;47.208;9.038;2022-07-18T00:42:28;20.50;74.50
3071;DHT22;1546;47.208;9.038;2022-07-18T00:45:14;20.60;74.00
3071;DHT22;1546;47.208;9.038;2022-07-18T00:48:05;20.60;74.30
3071;DHT22;1546;47.208;9.038;2022-07-18T00:50:51;20.50;75.20
3071;DHT22;1546;47.208;9.038;2022-07-18T00:53:37;20.40;75.30
3071;DHT22;1546;47.208;9.038;2022-07-18T00:56:24;20.50;74.70
3071;DHT22;1546;47.208;9.038;2022-07-18T00:59:10;20.50;74.00
3071;DHT22;1546;47.208;9.038;2022-07-18T01:01:56;20.50;74.90
3071;DHT22;1546;47.208;9.038;2022-07-18T01:04:41;20.50;74.30
3071;DHT22;1546;47.208;9.038;2022-07-18T01:07:27;20.50;74.20
3071;DHT22;1546;47.208;9.038;2022-07-18T01:10:13;20.50;74.60
3071;DHT22;1546;47.208;9.038;2022-07-18T01:13:00;20.50;74.70
3071;DHT22;1546;47.208;9.038;2022-07-18T01:15:45;20.40;75.80
3071;DHT22;1546;47.208;9.038;2022-07-18T01:18:31;20.30;76.10
3071;DHT22;1546;47.208;9.038;2022-07-18T01:21:18;20.30;76.30
3071;DHT22;1546;47.208;9.038;2022-07-18T01:24:04;20.30;75.40
3071;DHT22;1546;47.208;9.038;2022-07-18T01:26:50;20.40;75.40
3071;DHT22;1546;47.208;9.038;2022-07-18T01:29:35;20.40;76.50
3071;DHT22;1546;47.208;9.038;2022-07-18T01:32:21;20.40;76.10
3071;DHT22;1546;47.208;9.038;2022-07-18T01:35:08;20.40;75.60
3071;DHT22;1546;47.208;9.038;2022-07-18T01:37:57;20.40;75.00
3071;DHT22;1546;47.208;9.038;2022-07-18T01:40:43;20.50;75.00
3071;DHT22;1546;47.208;9.038;2022-07-18T01:43:29;20.50;75.10
3071;DHT22;1546;47.208;9.038;2022-07-18T01:46:15;20.50;74.60
3071;DHT22;1546;47.208;9.038;2022-07-18T01:49:00;20.50;75.40
3071;DHT22;1546;47.208;9.038;2022-07-18T01:51:46;20.30;76.70
3071;DHT22;1546;47.208;9.038;2022-07-18T01:54:34;20.10;77.80
3071;DHT22;1546;47.208;9.038;2022-07-18T01:57:20;20.00;78.50
3071;DHT22;1546;47.208;9.038;2022-07-18T02:00:09;20.00;79.40
3071;DHT22;1546;47.208;9.038;2022-07-18T02:02:55;19.80;79.50
3071;DHT22;1546;47.208;9.038;2022-07-18T02:05:41;19.70;81.10
3071;DHT22;1546;47.208;9.038;2022-07-18T02:08:26;19.50;81.90
3071;DHT22;1546;47.208;9.038;2022-07-18T02:11:13;19.50;80.20
3071;DHT22;1546;47.208;9.038;2022-07-18T02:13:59;19.50;80.90
3071;DHT22;1546;47.208;9.038;2022-07-18T02:16:44;19.50;80.40
3071;DHT22;1546;47.208;9.038;2022-07-18T02:19:30;19.60;80.30
3071;DHT22;1546;47.208;9.038;2022-07-18T02:22:16;19.30;81.30
3071;DHT22;1546;47.208;9.038;2022-07-18T02:25:02;19.10;82.50
3071;DHT22;1546;47.208;9.038;2022-07-18T02:27:49;19.00;83.20
3071;DHT22;1546;47.208;9.038;2022-07-18T02:30:34;19.10;83.60
3071;DHT22;1546;47.208;9.038;2022-07-18T02:33:20;19.10;83.50
3071;DHT22;1546;47.208;9.038;2022-07-18T02:36:06;19.30;82.50
3071;DHT22;1546;47.208;9.038;2022-07-18T02:38:51;19.30;82.60
3071;DHT22;1546;47.208;9.038;2022-07-18T02:41:37;19.20;83.20
3071;DHT22;1546;47.208;9.038;2022-07-18T02:44:24;19.10;83.10
3071;DHT22;1546;47.208;9.038;2022-07-18T02:47:10;19.10;82.30
3071;DHT22;1546;47.208;9.038;2022-07-18T02:49:55;19.20;82.00
3071;DHT22;1546;47.208;9.038;2022-07-18T02:52:41;19.00;83.40
3071;DHT22;1546;47.208;9.038;2022-07-18T02:55:27;19.00;84.30
3071;DHT22;1546;47.208;9.038;2022-07-18T02:58:12;19.00;83.80
3071;DHT22;1546;47.208;9.038;2022-07-18T03:00:59;19.20;83.70
3071;DHT22;1546;47.208;9.038;2022-07-18T03:03:45;19.30;84.80
3071;DHT22;1546;47.208;9.038;2022-07-18T03:06:30;19.30;84.40
3071;DHT22;1546;47.208;9.038;2022-07-18T03:09:16;19.20;84.00
3071;DHT22;1546;47.208;9.038;2022-07-18T03:12:02;19.20;84.80
3071;DHT22;1546;47.208;9.038;2022-07-18T03:14:49;19.10;84.60
3071;DHT22;1546;47.208;9.038;2022-07-18T03:17:36;19.00;85.50
3071;DHT22;1546;47.208;9.038;2022-07-18T03:20:22;18.90;84.90
3071;DHT22;1546;47.208;9.038;2022-07-18T03:23:08;18.90;84.50
3071;DHT22;1546;47.208;9.038;2022-07-18T03:25:53;18.90;84.40
3071;DHT22;1546;47.208;9.038;2022-07-18T03:28:39;19.00;84.50
3071;DHT22;1546;47.208;9.038;2022-07-18T03:31:24;18.90;84.60
3071;DHT22;1546;47.208;9.038;2022-07-18T03:34:11;18.80;85.30
3071;DHT22;1546;47.208;9.038;2022-07-18T03:36:57;18.80;85.80
3071;DHT22;1546;47.208;9.038;2022-07-18T03:39:42;18.70;86.60
3071;DHT22;1546;47.208;9.038;2022-07-18T03:42:29;18.60;86.20
3071;DHT22;1546;47.208;9.038;2022-07-18T03:45:14;18.60;86.50
3071;DHT22;1546;47.208;9.038;2022-07-18T03:48:00;18.70;85.60
3071;DHT22;1546;47.208;9.038;2022-07-18T03:50:47;18.80;85.60
3071;DHT22;1546;47.208;9.038;2022-07-18T03:53:33;18.80;85.70
3071;DHT22;1546;47.208;9.038;2022-07-18T03:56:19;18.90;85.70
3071;DHT22;1546;47.208;9.038;2022-07-18T03:59:04;18.90;86.30
3071;DHT22;1546;47.208;9.038;2022-07-18T04:01:49;18.80;86.30
3071;DHT22;1546;47.208;9.038;2022-07-18T04:04:35;18.80;86.00
3071;DHT22;1546;47.208;9.038;2022-07-18T04:07:22;18.90;85.90
3071;DHT22;1546;47.208;9.038;2022-07-18T04:10:09;18.80;87.30
3071;DHT22;1546;47.208;9.038;2022-07-18T04:12:55;18.80;86.90
3071;DHT22;1546;47.208;9.038;2022-07-18T04:15:41;18.80;86.30
3071;DHT22;1546;47.208;9.038;2022-07-18T04:18:27;18.90;86.70
3071;DHT22;1546;47.208;9.038;2022-07-18T04:21:13;18.80;87.10
3071;DHT22;1546;47.208;9.038;2022-07-18T04:24:00;18.80;88.10
3071;DHT22;1546;47.208;9.038;2022-07-18T04:26:45;18.80;87.00
3071;DHT22;1546;47.208;9.038;2022-07-18T04:29:31;18.80;87.50
3071;DHT22;1546;47.208;9.038;2022-07-18T04:32:17;18.80;88.00
3071;DHT22;1546;47.208;9.038;2022-07-18T04:35:03;18.70;89.80
3071;DHT22;1546;47.208;9.038;2022-07-18T04:37:49;18.70;90.00
3071;DHT22;1546;47.208;9.038;2022-07-18T04:40:37;18.60;90.50
3071;DHT22;1546;47.208;9.038;2022-07-18T04:43:23;18.60;90.60
3071;DHT22;1546;47.208;9.038;2022-07-18T04:46:08;18.60;90.60
3071;DHT22;1546;47.208;9.038;2022-07-18T04:48:54;18.60;90.20
3071;DHT22;1546;47.208;9.038;2022-07-18T04:51:40;18.70;89.90
3071;DHT22;1546;47.208;9.038;2022-07-18T04:54:25;18.70;90.00
3071;DHT22;1546;47.208;9.038;2022-07-18T04:57:12;18.70;90.20
3071;DHT22;1546;47.208;9.038;2022-07-18T04:59:58;18.80;91.00
3071;DHT22;1546;47.208;9.038;2022-07-18T05:02:46;18.80;91.20
3071;DHT22;1546;47.208;9.038;2022-07-18T05:05:32;18.80;91.40
3071;DHT22;1546;47.208;9.038;2022-07-18T05:08:17;18.80;91.20
3071;DHT22;1546;47.208;9.038;2022-07-18T05:11:03;18.90;91.10
3071;DHT22;1546;47.208;9.038;2022-07-18T05:13:50;19.00;90.90
3071;DHT22;1546;47.208;9.038;2022-07-18T05:16:35;19.00;90.80
3071;DHT22;1546;47.208;9.038;2022-07-18T05:19:21;19.00;90.40
3071;DHT22;1546;47.208;9.038;2022-07-18T05:22:06;19.10;90.60
3071;DHT22;1546;47.208;9.038;2022-07-18T05:24:52;19.00;90.70
3071;DHT22;1546;47.208;9.038;2022-07-18T05:27:38;19.20;90.90
3071;DHT22;1546;47.208;9.038;2022-07-18T05:30:25;19.50;89.90
3071;DHT22;1546;47.208;9.038;2022-07-18T05:33:10;19.60;89.20
3071;DHT22;1546;47.208;9.038;2022-07-18T05:35:56;19.70;88.50
3071;DHT22;1546;47.208;9.038;2022-07-18T05:38:42;19.90;88.80
3071;DHT22;1546;47.208;9.038;2022-07-18T05:41:27;20.10;90.30
3071;DHT22;1546;47.208;9.038;2022-07-18T05:44:13;20.30;90.00
3071;DHT22;1546;47.208;9.038;2022-07-18T05:47:00;20.60;89.20
3071;DHT22;1546;47.208;9.038;2022-07-18T05:49:46;20.90;87.80
3071;DHT22;1546;47.208;9.038;2022-07-18T05:52:32;21.00;88.80
3071;DHT22;1546;47.208;9.038;2022-07-18T05:55:18;21.10;87.10
3071;DHT22;1546;47.208;9.038;2022-07-18T05:58:04;21.20;86.80
3071;DHT22;1546;47.208;9.038;2022-07-18T06:00:49;21.30;86.30
3071;DHT22;1546;47.208;9.038;2022-07-18T06:03:36;21.30;86.20
3071;DHT22;1546;47.208;9.038;2022-07-18T06:06:21;21.40;85.30
3071;DHT22;1546;47.208;9.038;2022-07-18T06:09:08;21.50;85.70
3071;DHT22;1546;47.208;9.038;2022-07-18T06:11:54;21.50;86.00
3071;DHT22;1546;47.208;9.038;2022-07-18T06:14:40;21.70;84.90
3071;DHT22;1546;47.208;9.038;2022-07-18T06:17:25;21.70;84.60
3071;DHT22;1546;47.208;9.038;2022-07-18T06:20:13;21.90;84.00
3071;DHT22;1546;47.208;9.038;2022-07-18T06:22:58;22.10;84.10
3071;DHT22;1546;47.208;9.038;2022-07-18T06:25:44;22.30;83.20
3071;DHT22;1546;47.208;9.038;2022-07-18T06:28:30;22.40;82.20
3071;DHT22;1546;47.208;9.038;2022-07-18T06:31:16;22.50;82.30
3071;DHT22;1546;47.208;9.038;2022-07-18T06:34:01;22.70;81.80
3071;DHT22;1546;47.208;9.038;2022-07-18T06:36:48;22.90;81.30
3071;DHT22;1546;47.208;9.038;2022-07-18T06:39:34;23.00;80.10
3071;DHT22;1546;47.208;9.038;2022-07-18T06:42:20;23.10;80.70
3071;DHT22;1546;47.208;9.038;2022-07-18T06:45:06;23.20;81.00
3071;DHT22;1546;47.208;9.038;2022-07-18T06:47:52;23.20;81.10
3071;DHT22;1546;47.208;9.038;2022-07-18T06:50:38;23.20;81.20
3071;DHT22;1546;47.208;9.038;2022-07-18T06:53:24;23.20;80.80
3071;DHT22;1546;47.208;9.038;2022-07-18T06:56:10;23.30;80.90
3071;DHT22;1546;47.208;9.038;2022-07-18T06:58:55;23.50;79.60
3071;DHT22;1546;47.208;9.038;2022-07-18T07:01:41;23.70;79.10
3071;DHT22;1546;47.208;9.038;2022-07-18T07:04:27;23.90;79.10
3071;DHT22;1546;47.208;9.038;2022-07-18T07:07:13;24.00;78.00
3071;DHT22;1546;47.208;9.038;2022-07-18T07:09:59;24.00;77.50
3071;DHT22;1546;47.208;9.038;2022-07-18T07:12:47;24.00;78.10
3071;DHT22;1546;47.208;9.038;2022-07-18T07:15:33;24.10;78.20
3071;DHT22;1546;47.208;9.038;2022-07-18T07:18:18;24.30;79.00
3071;DHT22;1546;47.208;9.038;2022-07-18T07:21:05;24.40;78.80
3071;DHT22;1546;47.208;9.038;2022-07-18T07:23:52;24.60;77.10
3071;DHT22;1546;47.208;9.038;2022-07-18T07:26:39;24.90;76.70
3071;DHT22;1546;47.208;9.038;2022-07-18T07:29:24;25.20;75.30
3071;DHT22;1546;47.208;9.038;2022-07-18T07:32:10;25.30;71.90
3071;DHT22;1546;47.208;9.038;2022-07-18T07:34:56;25.30;71.60
3071;DHT22;1546;47.208;9.038;2022-07-18T07:37:43;25.20;72.00
3071;DHT22;1546;47.208;9.038;2022-07-18T07:40:29;25.20;72.10
3071;DHT22;1546;47.208;9.038;2022-07-18T07:43:16;25.00;73.40
3071;DHT22;1546;47.208;9.038;2022-07-18T07:46:02;25.00;74.10
3071;DHT22;1546;47.208;9.038;2022-07-18T07:48:47;25.00;74.30
3071;DHT22;1546;47.208;9.038;2022-07-18T07:51:33;25.20;75.00
3071;DHT22;1546;47.208;9.038;2022-07-18T07:54:18;25.40;73.00
3071;DHT22;1546;47.208;9.038;2022-07-18T07:57:04;25.50;74.10
3071;DHT22;1546;47.208;9.038;2022-07-18T07:59:51;25.60;73.50
3071;DHT22;1546;47.208;9.038;2022-07-18T08:02:37;25.60;73.60
3071;DHT22;1546;47.208;9.038;2022-07-18T08:05:23;25.60;72.60
3071;DHT22;1546;47.208;9.038;2022-07-18T08:08:09;25.80;72.00
3071;DHT22;1546;47.208;9.038;2022-07-18T08:10:54;26.10;72.30
3071;DHT22;1546;47.208;9.038;2022-07-18T08:13:40;26.40;72.40
3071;DHT22;1546;47.208;9.038;2022-07-18T08:16:27;26.50;71.70
3071;DHT22;1546;47.208;9.038;2022-07-18T08:19:12;26.30;70.80
3071;DHT22;1546;47.208;9.038;2022-07-18T08:21:58;26.30;71.70
3071;DHT22;1546;47.208;9.038;2022-07-18T08:24:43;26.50;71.20
3071;DHT22;1546;47.208;9.038;2022-07-18T08:27:29;26.90;71.00
3071;DHT22;1546;47.208;9.038;2022-07-18T08:30:15;26.90;69.70
3071;DHT22;1546;47.208;9.038;2022-07-18T08:33:03;26.70;70.80
3071;DHT22;1546;47.208;9.038;2022-07-18T08:35:48;26.90;70.90
3071;DHT22;1546;47.208;9.038;2022-07-18T08:38:34;26.90;70.10
3071;DHT22;1546;47.208;9.038;2022-07-18T08:41:22;27.10;71.00
3071;DHT22;1546;47.208;9.038;2022-07-18T08:44:08;27.10;69.80
3071;DHT22;1546;47.208;9.038;2022-07-18T08:46:57;27.30;70.00
3071;DHT22;1546;47.208;9.038;2022-07-18T08:49:44;27.50;70.20
3071;DHT22;1546;47.208;9.038;2022-07-18T08:52:30;27.60;69.40
3071;DHT22;1546;47.208;9.038;2022-07-18T08:55:15;27.80;69.40
3071;DHT22;1546;47.208;9.038;2022-07-18T08:58:01;28.00;68.70
3071;DHT22;1546;47.208;9.038;2022-07-18T09:00:47;28.10;67.70
3071;DHT22;1546;47.208;9.038;2022-07-18T09:03:33;28.00;68.80
3071;DHT22;1546;47.208;9.038;2022-07-18T09:06:19;27.90;67.80
3071;DHT22;1546;47.208;9.038;2022-07-18T09:09:05;27.60;69.40
3071;DHT22;1546;47.208;9.038;2022-07-18T09:11:52;27.80;67.90
3071;DHT22;1546;47.208;9.038;2022-07-18T09:14:39;28.00;67.70
3071;DHT22;1546;47.208;9.038;2022-07-18T09:17:26;28.30;67.40
3071;DHT22;1546;47.208;9.038;2022-07-18T09:20:13;28.50;65.50
3071;DHT22;1546;47.208;9.038;2022-07-18T09:23:12;28.40;65.10
3071;DHT22;1546;47.208;9.038;2022-07-18T09:25:58;28.50;66.50
3071;DHT22;1546;47.208;9.038;2022-07-18T09:28:49;28.40;66.70
3071;DHT22;1546;47.208;9.038;2022-07-18T09:31:35;28.60;67.50
3071;DHT22;1546;47.208;9.038;2022-07-18T09:34:32;28.80;64.90
3071;DHT22;1546;47.208;9.038;2022-07-18T09:37:18;28.90;65.80
3071;DHT22;1546;47.208;9.038;2022-07-18T09:40:16;29.10;65.00
3071;DHT22;1546;47.208;9.038;2022-07-18T09:43:03;29.30;66.10
3071;DHT22;1546;47.208;9.038;2022-07-18T09:45:50;29.30;62.70
3071;DHT22;1546;47.208;9.038;2022-07-18T09:48:37;29.40;63.40
3071;DHT22;1546;47.208;9.038;2022-07-18T09:51:22;29.40;62.00
3071;DHT22;1546;47.208;9.038;2022-07-18T09:54:08;29.40;61.40
3071;DHT22;1546;47.208;9.038;2022-07-18T09:56:55;29.20;62.70
3071;DHT22;1546;47.208;9.038;2022-07-18T09:59:40;29.50;63.20
3071;DHT22;1546;47.208;9.038;2022-07-18T10:02:26;29.50;61.40
3071;DHT22;1546;47.208;9.038;2022-07-18T10:05:12;29.50;60.70
3071;DHT22;1546;47.208;9.038;2022-07-18T10:07:59;29.20;61.50
3071;DHT22;1546;47.208;9.038;2022-07-18T10:10:46;29.40;61.70
3071;DHT22;1546;47.208;9.038;2022-07-18T10:13:35;29.70;61.00
3071;DHT22;1546;47.208;9.038;2022-07-18T10:16:21;29.70;61.20
3071;DHT22;1546;47.208;9.038;2022-07-18T10:19:06;29.80;62.40
3071;DHT22;1546;47.208;9.038;2022-07-18T10:21:54;30.00;61.70
3071;DHT22;1546;47.208;9.038;2022-07-18T10:24:42;30.20;62.00
3071;DHT22;1546;47.208;9.038;2022-07-18T10:27:47;30.30;59.90
3071;DHT22;1546;47.208;9.038;2022-07-18T10:30:37;30.40;61.80
3071;DHT22;1546;47.208;9.038;2022-07-18T10:33:40;30.50;60.50
3071;DHT22;1546;47.208;9.038;2022-07-18T10:36:28;30.80;59.50
3071;DHT22;1546;47.208;9.038;2022-07-18T10:39:15;30.80;59.20
3071;DHT22;1546;47.208;9.038;2022-07-18T10:42:15;30.80;59.10
3071;DHT22;1546;47.208;9.038;2022-07-18T10:45:25;29.80;57.70
3071;DHT22;1546;47.208;9.038;2022-07-18T10:48:52;31.20;59.10
3071;DHT22;1546;47.208;9.038;2022-07-18T10:51:37;31.40;58.30
3071;DHT22;1546;47.208;9.038;2022-07-18T10:54:23;31.80;57.90
3071;DHT22;1546;47.208;9.038;2022-07-18T10:57:10;32.10;58.10
3071;DHT22;1546;47.208;9.038;2022-07-18T11:00:00;32.10;56.60
3071;DHT22;1546;47.208;9.038;2022-07-18T11:03:03;32.10;56.70
3071;DHT22;1546;47.208;9.038;2022-07-18T11:05:53;32.30;57.50
3071;DHT22;1546;47.208;9.038;2022-07-18T11:08:38;32.30;57.40
3071;DHT22;1546;47.208;9.038;2022-07-18T11:11:24;32.10;57.50
3071;DHT22;1546;47.208;9.038;2022-07-18T11:14:09;32.40;56.40
3071;DHT22;1546;47.208;9.038;2022-07-18T11:17:03;32.60;57.40
3071;DHT22;1546;47.208;9.038;2022-07-18T11:20:22;33.00;57.60
3071;DHT22;1546;47.208;9.038;2022-07-18T11:23:20;33.20;55.10
3071;DHT22;1546;47.208;9.038;2022-07-18T11:26:14;33.40;56.30
3071;DHT22;1546;47.208;9.038;2022-07-18T11:29:01;33.70;56.00
3071;DHT22;1546;47.208;9.038;2022-07-18T11:31:49;33.70;54.30
3071;DHT22;1546;47.208;9.038;2022-07-18T11:34:34;34.00;54.50
3071;DHT22;1546;47.208;9.038;2022-07-18T11:37:20;34.40;54.00
3071;DHT22;1546;47.208;9.038;2022-07-18T11:40:09;35.10;53.40
3071;DHT22;1546;47.208;9.038;2022-07-18T11:42:56;36.70;50.60
3071;DHT22;1546;47.208;9.038;2022-07-18T11:45:42;37.40;49.50
3071;DHT22;1546;47.208;9.038;2022-07-18T11:48:28;37.80;48.70
3071;DHT22;1546;47.208;9.038;2022-07-18T11:51:16;38.30;48.30
3071;DHT22;1546;47.208;9.038;2022-07-18T11:54:02;38.00;47.70
3071;DHT22;1546;47.208;9.038;2022-07-18T11:56:51;39.00;47.30
3071;DHT22;1546;47.208;9.038;2022-07-18T11:59:39;39.30;46.30
3071;DHT22;1546;47.208;9.038;2022-07-18T12:05:50;39.60;44.10
3071;DHT22;1546;47.208;9.038;2022-07-18T12:08:39;39.90;45.20
3071;DHT22;1546;47.208;9.038;2022-07-18T12:11:27;40.10;43.70
3071;DHT22;1546;47.208;9.038;2022-07-18T12:14:15;39.80;43.60
3071;DHT22;1546;47.208;9.038;2022-07-18T12:17:01;40.30;43.90
3071;DHT22;1546;47.208;9.038;2022-07-18T12:19:47;40.60;41.90
3071;DHT22;1546;47.208;9.038;2022-07-18T12:22:33;40.50;41.30
3071;DHT22;1546;47.208;9.038;2022-07-18T12:25:18;40.60;41.10
3071;DHT22;1546;47.208;9.038;2022-07-18T12:28:15;40.90;42.10
3071;DHT22;1546;47.208;9.038;2022-07-18T12:31:02;41.20;40.60
3071;DHT22;1546;47.208;9.038;2022-07-18T12:34:12;40.60;40.90
3071;DHT22;1546;47.208;9.038;2022-07-18T12:36:57;39.90;41.20
3071;DHT22;1546;47.208;9.038;2022-07-18T12:39:43;40.20;41.20
3071;DHT22;1546;47.208;9.038;2022-07-18T12:42:30;40.50;40.10
3071;DHT22;1546;47.208;9.038;2022-07-18T12:45:16;40.20;40.00
3071;DHT22;1546;47.208;9.038;2022-07-18T12:48:05;40.60;39.70
3071;DHT22;1546;47.208;9.038;2022-07-18T12:50:59;41.00;38.90
3071;DHT22;1546;47.208;9.038;2022-07-18T12:53:44;41.40;39.40
3071;DHT22;1546;47.208;9.038;2022-07-18T12:56:30;41.60;38.50
3071;DHT22;1546;47.208;9.038;2022-07-18T12:59:16;41.30;38.00
3071;DHT22;1546;47.208;9.038;2022-07-18T13:02:02;40.90;37.80
3071;DHT22;1546;47.208;9.038;2022-07-18T13:04:49;40.80;40.50
3071;DHT22;1546;47.208;9.038;2022-07-18T13:07:35;41.50;38.00
3071;DHT22;1546;47.208;9.038;2022-07-18T13:10:20;41.40;37.80
3071;DHT22;1546;47.208;9.038;2022-07-18T13:13:07;41.10;37.40
3071;DHT22;1546;47.208;9.038;2022-07-18T13:15:53;39.90;38.10
3071;DHT22;1546;47.208;9.038;2022-07-18T13:18:38;39.60;35.40
3071;DHT22;1546;47.208;9.038;2022-07-18T13:21:26;38.60;35.50
3071;DHT22;1546;47.208;9.038;2022-07-18T13:24:12;38.10;36.20
3071;DHT22;1546;47.208;9.038;2022-07-18T13:26:57;38.80;36.30
3071;DHT22;1546;47.208;9.038;2022-07-18T13:29:43;38.70;35.20
3071;DHT22;1546;47.208;9.038;2022-07-18T13:32:29;38.60;35.00
3071;DHT22;1546;47.208;9.038;2022-07-18T13:35:14;39.30;36.80
3071;DHT22;1546;47.208;9.038;2022-07-18T13:38:01;40.30;35.00
3071;DHT22;1546;47.208;9.038;2022-07-18T13:40:47;40.40;34.50
3071;DHT22;1546;47.208;9.038;2022-07-18T13:43:32;40.00;33.30
3071;DHT22;1546;47.208;9.038;2022-07-18T13:46:18;40.30;33.40
3071;DHT22;1546;47.208;9.038;2022-07-18T13:49:04;40.30;34.00
3071;DHT22;1546;47.208;9.038;2022-07-18T13:51:49;40.80;34.40
3071;DHT22;1546;47.208;9.038;2022-07-18T13:54:36;41.10;34.30
3071;DHT22;1546;47.208;9.038;2022-07-18T13:57:22;41.20;34.80
3071;DHT22;1546;47.208;9.038;2022-07-18T14:00:09;41.30;32.50
3071;DHT22;1546;47.208;9.038;2022-07-18T14:02:55;41.90;32.60
3071;DHT22;1546;47.208;9.038;2022-07-18T14:05:41;41.80;35.80
3071;DHT22;1546;47.208;9.038;2022-07-18T14:08:26;41.00;36.90
3071;DHT22;1546;47.208;9.038;2022-07-18T14:11:13;40.40;36.60
3071;DHT22;1546;47.208;9.038;2022-07-18T14:13:59;40.10;38.50
3071;DHT22;1546;47.208;9.038;2022-07-18T14:16:45;40.70;37.10
3071;DHT22;1546;47.208;9.038;2022-07-18T14:19:30;40.80;36.60
3071;DHT22;1546;47.208;9.038;2022-07-18T14:22:16;41.00;36.70
3071;DHT22;1546;47.208;9.038;2022-07-18T14:25:02;41.00;35.60
3071;DHT22;1546;47.208;9.038;2022-07-18T14:27:49;40.90;33.00
3071;DHT22;1546;47.208;9.038;2022-07-18T14:30:34;40.90;33.20
3071;DHT22;1546;47.208;9.038;2022-07-18T14:33:20;41.70;32.30
3071;DHT22;1546;47.208;9.038;2022-07-18T14:36:06;41.30;30.70
3071;DHT22;1546;47.208;9.038;2022-07-18T14:38:51;41.50;31.00
3071;DHT22;1546;47.208;9.038;2022-07-18T14:41:37;41.00;31.50
3071;DHT22;1546;47.208;9.038;2022-07-18T14:44:24;40.50;32.50
3071;DHT22;1546;47.208;9.038;2022-07-18T14:47:11;40.30;31.90
3071;DHT22;1546;47.208;9.038;2022-07-18T14:49:57;39.50;32.60
3071;DHT22;1546;47.208;9.038;2022-07-18T14:52:42;39.40;32.70
3071;DHT22;1546;47.208;9.038;2022-07-18T14:55:28;38.90;33.20
3071;DHT22;1546;47.208;9.038;2022-07-18T14:58:13;38.80;33.80
3071;DHT22;1546;47.208;9.038;2022-07-18T15:01:01;38.30;33.40
3071;DHT22;1546;47.208;9.038;2022-07-18T15:03:46;38.20;34.20
3071;DHT22;1546;47.208;9.038;2022-07-18T15:06:31;38.00;34.10
3071;DHT22;1546;47.208;9.038;2022-07-18T15:09:17;37.60;34.30
3071;DHT22;1546;47.208;9.038;2022-07-18T15:12:03;37.20;35.80
3071;DHT22;1546;47.208;9.038;2022-07-18T15:14:48;37.10;35.00
3071;DHT22;1546;47.208;9.038;2022-07-18T15:17:35;37.30;34.90
3071;DHT22;1546;47.208;9.038;2022-07-18T15:20:21;37.30;34.80
3071;DHT22;1546;47.208;9.038;2022-07-18T15:23:06;36.80;35.80
3071;DHT22;1546;47.208;9.038;2022-07-18T15:25:52;36.60;35.90
3071;DHT22;1546;47.208;9.038;2022-07-18T15:28:37;36.00;36.40
3071;DHT22;1546;47.208;9.038;2022-07-18T15:31:23;35.50;37.60
3071;DHT22;1546;47.208;9.038;2022-07-18T15:34:10;35.10;37.90
3071;DHT22;1546;47.208;9.038;2022-07-18T15:36:56;34.70;37.20
3071;DHT22;1546;47.208;9.038;2022-07-18T15:39:41;34.20;38.30
3071;DHT22;1546;47.208;9.038;2022-07-18T15:42:27;33.80;39.20
3071;DHT22;1546;47.208;9.038;2022-07-18T15:45:13;33.60;38.80
3071;DHT22;1546;47.208;9.038;2022-07-18T15:47:59;33.40;38.80
3071;DHT22;1546;47.208;9.038;2022-07-18T15:50:45;33.40;38.90
3071;DHT22;1546;47.208;9.038;2022-07-18T15:53:31;33.50;39.30
3071;DHT22;1546;47.208;9.038;2022-07-18T15:56:17;33.80;39.70
3071;DHT22;1546;47.208;9.038;2022-07-18T15:59:03;33.90;38.90
3071;DHT22;1546;47.208;9.038;2022-07-18T16:01:49;34.00;38.50
3071;DHT22;1546;47.208;9.038;2022-07-18T16:04:34;34.10;39.70
3071;DHT22;1546;47.208;9.038;2022-07-18T16:07:21;34.30;38.90
3071;DHT22;1546;47.208;9.038;2022-07-18T16:10:08;34.20;38.20
3071;DHT22;1546;47.208;9.038;2022-07-18T16:12:53;34.00;39.10
3071;DHT22;1546;47.208;9.038;2022-07-18T16:15:39;33.70;38.50
3071;DHT22;1546;47.208;9.038;2022-07-18T16:18:26;33.40;39.60
3071;DHT22;1546;47.208;9.038;2022-07-18T16:21:12;33.40;39.80
3071;DHT22;1546;47.208;9.038;2022-07-18T16:23:59;33.30;40.20
3071;DHT22;1546;47.208;9.038;2022-07-18T16:26:45;33.30;39.20
3071;DHT22;1546;47.208;9.038;2022-07-18T16:29:31;33.30;39.60
3071;DHT22;1546;47.208;9.038;2022-07-18T16:32:16;33.40;39.30
3071;DHT22;1546;47.208;9.038;2022-07-18T16:35:03;33.70;39.20
3071;DHT22;1546;47.208;9.038;2022-07-18T16:37:48;33.90;38.50
3071;DHT22;1546;47.208;9.038;2022-07-18T16:40:36;33.70;38.50
3071;DHT22;1546;47.208;9.038;2022-07-18T16:43:22;33.20;39.80
3071;DHT22;1546;47.208;9.038;2022-07-18T16:46:09;32.90;40.10
3071;DHT22;1546;47.208;9.038;2022-07-18T16:48:55;32.70;40.20
3071;DHT22;1546;47.208;9.038;2022-07-18T16:51:41;32.40;39.70
3071;DHT22;1546;47.208;9.038;2022-07-18T16:54:27;32.20;41.60
3071;DHT22;1546;47.208;9.038;2022-07-18T16:57:14;32.00;39.50
3071;DHT22;1546;47.208;9.038;2022-07-18T17:00:00;31.90;39.70
3071;DHT22;1546;47.208;9.038;2022-07-18T17:02:47;31.90;40.40
3071;DHT22;1546;47.208;9.038;2022-07-18T17:05:33;31.90;40.60
3071;DHT22;1546;47.208;9.038;2022-07-18T17:08:20;31.80;40.50
3071;DHT22;1546;47.208;9.038;2022-07-18T17:11:06;31.80;40.70
3071;DHT22;1546;47.208;9.038;2022-07-18T17:13:53;31.70;41.10
3071;DHT22;1546;47.208;9.038;2022-07-18T17:16:40;31.60;41.30
3071;DHT22;1546;47.208;9.038;2022-07-18T17:19:26;31.60;40.50
3071;DHT22;1546;47.208;9.038;2022-07-18T17:22:12;31.60;40.40
3071;DHT22;1546;47.208;9.038;2022-07-18T17:24:57;31.60;40.60
3071;DHT22;1546;47.208;9.038;2022-07-18T17:27:43;31.60;40.30
3071;DHT22;1546;47.208;9.038;2022-07-18T17:30:31;31.50;40.80
3071;DHT22;1546;47.208;9.038;2022-07-18T17:33:18;31.50;40.50
3071;DHT22;1546;47.208;9.038;2022-07-18T17:36:04;31.50;40.40
3071;DHT22;1546;47.208;9.038;2022-07-18T17:38:51;31.40;41.20
3071;DHT22;1546;47.208;9.038;2022-07-18T17:41:37;31.40;41.80
3071;DHT22;1546;47.208;9.038;2022-07-18T17:44:25;31.20;41.90
3071;DHT22;1546;47.208;9.038;2022-07-18T17:47:13;31.20;42.90
3071;DHT22;1546;47.208;9.038;2022-07-18T17:49:58;31.10;43.10
3071;DHT22;1546;47.208;9.038;2022-07-18T17:52:44;30.80;41.90
3071;DHT22;1546;47.208;9.038;2022-07-18T17:55:30;30.70;43.00
3071;DHT22;1546;47.208;9.038;2022-07-18T17:58:16;30.50;43.10
3071;DHT22;1546;47.208;9.038;2022-07-18T18:01:02;30.30;43.80
3071;DHT22;1546;47.208;9.038;2022-07-18T18:03:49;30.20;43.30
3071;DHT22;1546;47.208;9.038;2022-07-18T18:06:34;30.00;45.10
3071;DHT22;1546;47.208;9.038;2022-07-18T18:09:20;29.80;46.60
3071;DHT22;1546;47.208;9.038;2022-07-18T18:12:05;29.50;47.20